sensor_id;sensor_type;location;lat;lon;timestamp;temperature;humidity
8994;DHT22;4532;50.886;4.700;2023-10-13T00:01:41;20.70;70.60
8994;DHT22;4532;50.886;4.700;2023-10-13T00:04:08;20.70;70.60
8994;DHT22;4532;50.886;4.700;2023-10-13T00:06:35;20.70;70.70
8994;DHT22;4532;50.886;4.700;2023-10-13T00:09:04;20.70;70.70
8994;DHT22;4532;50.886;4.700;2023-10-13T00:11:34;20.70;70.70
8994;DHT22;4532;50.886;4.700;2023-10-13T00:14:04;20.70;70.70
8994;DHT22;4532;50.886;4.700;2023-10-13T00:16:31;20.80;70.80
8994;DHT22;4532;50.886;4.700;2023-10-13T00:19:06;20.70;70.80
8994;DHT22;4532;50.886;4.700;2023-10-13T00:21:36;20.70;70.80
8994;DHT22;4532;50.886;4.700;2023-10-13T00:24:06;20.80;70.90
8994;DHT22;4532;50.886;4.700;2023-10-13T00:26:39;20.80;70.90
8994;DHT22;4532;50.886;4.700;2023-10-13T00:29:12;20.70;70.90
8994;DHT22;4532;50.886;4.700;2023-10-13T00:31:45;20.70;70.90
8994;DHT22;4532;50.886;4.700;2023-10-13T00:34:16;20.70;70.90
8994;DHT22;4532;50.886;4.700;2023-10-13T00:36:56;20.70;70.90
8994;DHT22;4532;50.886;4.700;2023-10-13T00:39:44;20.70;70.90
8994;DHT22;4532;50.886;4.700;2023-10-13T00:42:14;20.70;71.00
8994;DHT22;4532;50.886;4.700;2023-10-13T00:45:02;20.70;71.00
8994;DHT22;4532;50.886;4.700;2023-10-13T00:47:33;20.70;71.00
8994;DHT22;4532;50.886;4.700;2023-10-13T00:50:04;20.70;71.10
8994;DHT22;4532;50.886;4.700;2023-10-13T00:52:34;20.70;71.10
8994;DHT22;4532;50.886;4.700;2023-10-13T00:55:05;20.70;71.20
8994;DHT22;4532;50.886;4.700;2023-10-13T00:57:35;20.70;71.20
8994;DHT22;4532;50.886;4.700;2023-10-13T01:00:03;20.70;71.20
8994;DHT22;4532;50.886;4.700;2023-10-13T01:03:00;20.70;71.20
8994;DHT22;4532;50.886;4.700;2023-10-13T01:05:34;20.70;71.20
8994;DHT22;4532;50.886;4.700;2023-10-13T01:08:04;20.70;71.20
8994;DHT22;4532;50.886;4.700;2023-10-13T01:10:33;20.70;71.20
8994;DHT22;4532;50.886;4.700;2023-10-13T01:13:06;20.70;71.20
8994;DHT22;4532;50.886;4.700;2023-10-13T01:15:34;20.80;71.40
8994;DHT22;4532;50.886;4.700;2023-10-13T01:18:09;20.80;71.40
8994;DHT22;4532;50.886;4.700;2023-10-13T01:20:39;20.80;71.50
8994;DHT22;4532;50.886;4.700;2023-10-13T01:23:14;20.80;71.40
8994;DHT22;4532;50.886;4.700;2023-10-13T01:25:51;20.80;71.50
8994;DHT22;4532;50.886;4.700;2023-10-13T01:28:23;20.80;71.40
8994;DHT22;4532;50.886;4.700;2023-10-13T01:30:53;20.80;71.40
8994;DHT22;4532;50.886;4.700;2023-10-13T01:33:20;20.80;71.50
8994;DHT22;4532;50.886;4.700;2023-10-13T01:35:57;20.80;71.50
8994;DHT22;4532;50.886;4.700;2023-10-13T01:38:26;20.80;71.50
8994;DHT22;4532;50.886;4.700;2023-10-13T01:40:56;20.80;71.50
8994;DHT22;4532;50.886;4.700;2023-10-13T01:43:25;20.80;71.60
8994;DHT22;4532;50.886;4.700;2023-10-13T01:45:55;20.80;71.60
8994;DHT22;4532;50.886;4.700;2023-10-13T01:48:22;20.80;71.60
8994;DHT22;4532;50.886;4.700;2023-10-13T01:50:56;20.80;71.50
8994;DHT22;4532;50.886;4.700;2023-10-13T01:53:26;20.80;71.70
8994;DHT22;4532;50.886;4.700;2023-10-13T01:55:56;20.80;71.60
8994;DHT22;4532;50.886;4.700;2023-10-13T01:58:26;20.80;71.60
8994;DHT22;4532;50.886;4.700;2023-10-13T02:00:56;20.80;71.70
8994;DHT22;4532;50.886;4.700;2023-10-13T02:03:26;20.80;71.70
8994;DHT22;4532;50.886;4.700;2023-10-13T02:05:57;20.80;71.70
8994;DHT22;4532;50.886;4.700;2023-10-13T02:08:31;20.80;71.70
8994;DHT22;4532;50.886;4.700;2023-10-13T02:11:00;20.80;71.70
8994;DHT22;4532;50.886;4.700;2023-10-13T02:13:30;20.80;71.80
8994;DHT22;4532;50.886;4.700;2023-10-13T02:15:58;20.80;71.80
8994;DHT22;4532;50.886;4.700;2023-10-13T02:18:31;20.80;71.80
8994;DHT22;4532;50.886;4.700;2023-10-13T02:21:10;20.80;71.80
8994;DHT22;4532;50.886;4.700;2023-10-13T02:23:43;20.80;71.80
8994;DHT22;4532;50.886;4.700;2023-10-13T02:26:15;20.80;71.80
8994;DHT22;4532;50.886;4.700;2023-10-13T02:29:01;20.80;71.80
8994;DHT22;4532;50.886;4.700;2023-10-13T02:31:42;20.80;71.90
8994;DHT22;4532;50.886;4.700;2023-10-13T02:34:09;20.80;71.80
8994;DHT22;4532;50.886;4.700;2023-10-13T02:36:40;20.80;71.90
8994;DHT22;4532;50.886;4.700;2023-10-13T02:39:17;20.80;71.90
8994;DHT22;4532;50.886;4.700;2023-10-13T02:41:44;20.80;71.90
8994;DHT22;4532;50.886;4.700;2023-10-13T02:44:17;20.80;71.90
8994;DHT22;4532;50.886;4.700;2023-10-13T02:47:02;20.80;71.90
8994;DHT22;4532;50.886;4.700;2023-10-13T02:49:41;20.80;72.00
8994;DHT22;4532;50.886;4.700;2023-10-13T02:52:15;20.80;71.90
8994;DHT22;4532;50.886;4.700;2023-10-13T02:54:45;20.80;72.00
8994;DHT22;4532;50.886;4.700;2023-10-13T02:57:18;20.90;72.00
8994;DHT22;4532;50.886;4.700;2023-10-13T02:59:45;20.90;72.10
8994;DHT22;4532;50.886;4.700;2023-10-13T03:02:26;20.90;72.10
8994;DHT22;4532;50.886;4.700;2023-10-13T03:04:58;20.90;72.20
8994;DHT22;4532;50.886;4.700;2023-10-13T03:07:36;20.90;72.10
8994;DHT22;4532;50.886;4.700;2023-10-13T03:10:10;20.90;72.10
8994;DHT22;4532;50.886;4.700;2023-10-13T03:12:39;20.90;72.20
8994;DHT22;4532;50.886;4.700;2023-10-13T03:15:07;20.90;72.20
8994;DHT22;4532;50.886;4.700;2023-10-13T03:17:58;20.90;72.10
8994;DHT22;4532;50.886;4.700;2023-10-13T03:20:31;20.90;72.40
8994;DHT22;4532;50.886;4.700;2023-10-13T03:23:01;20.90;72.20
8994;DHT22;4532;50.886;4.700;2023-10-13T03:25:39;20.90;72.20
8994;DHT22;4532;50.886;4.700;2023-10-13T03:28:26;20.90;72.20
8994;DHT22;4532;50.886;4.700;2023-10-13T03:31:01;20.90;72.30
8994;DHT22;4532;50.886;4.700;2023-10-13T03:33:33;20.90;72.20
8994;DHT22;4532;50.886;4.700;2023-10-13T03:36:00;20.90;72.40
8994;DHT22;4532;50.886;4.700;2023-10-13T03:38:32;20.90;72.30
8994;DHT22;4532;50.886;4.700;2023-10-13T03:41:03;20.90;72.30
8994;DHT22;4532;50.886;4.700;2023-10-13T03:43:36;20.90;72.40
8994;DHT22;4532;50.886;4.700;2023-10-13T03:46:18;20.90;72.30
8994;DHT22;4532;50.886;4.700;2023-10-13T03:48:49;20.90;72.50
8994;DHT22;4532;50.886;4.700;2023-10-13T03:51:23;20.90;72.40
8994;DHT22;4532;50.886;4.700;2023-10-13T03:54:00;20.90;72.50
8994;DHT22;4532;50.886;4.700;2023-10-13T03:56:35;20.90;72.50
8994;DHT22;4532;50.886;4.700;2023-10-13T03:59:11;20.90;72.40
8994;DHT22;4532;50.886;4.700;2023-10-13T04:01:41;20.90;72.40
8994;DHT22;4532;50.886;4.700;2023-10-13T04:04:19;20.90;72.50
8994;DHT22;4532;50.886;4.700;2023-10-13T04:07:03;20.90;72.50
8994;DHT22;4532;50.886;4.700;2023-10-13T04:09:38;20.90;72.50
8994;DHT22;4532;50.886;4.700;2023-10-13T04:12:14;20.90;72.50
8994;DHT22;4532;50.886;4.700;2023-10-13T04:15:05;20.90;72.50
8994;DHT22;4532;50.886;4.700;2023-10-13T04:17:37;20.90;72.60
8994;DHT22;4532;50.886;4.700;2023-10-13T04:20:12;20.90;72.70
8994;DHT22;4532;50.886;4.700;2023-10-13T04:22:43;20.90;72.70
8994;DHT22;4532;50.886;4.700;2023-10-13T04:25:24;20.90;72.70
8994;DHT22;4532;50.886;4.700;2023-10-13T04:30:47;21.00;72.70
8994;DHT22;4532;50.886;4.700;2023-10-13T04:33:28;21.00;72.80
8994;DHT22;4532;50.886;4.700;2023-10-13T04:38:51;21.00;73.00
8994;DHT22;4532;50.886;4.700;2023-10-13T04:41:28;21.00;72.80
8994;DHT22;4532;50.886;4.700;2023-10-13T04:44:16;21.00;72.80
8994;DHT22;4532;50.886;4.700;2023-10-13T04:47:09;21.00;72.90
8994;DHT22;4532;50.886;4.700;2023-10-13T04:49:50;21.00;72.90
8994;DHT22;4532;50.886;4.700;2023-10-13T04:52:21;21.00;72.90
8994;DHT22;4532;50.886;4.700;2023-10-13T04:55:11;21.00;72.80
8994;DHT22;4532;50.886;4.700;2023-10-13T04:57:57;21.00;72.80
8994;DHT22;4532;50.886;4.700;2023-10-13T05:00:38;21.00;72.80
8994;DHT22;4532;50.886;4.700;2023-10-13T05:03:46;21.00;72.80
8994;DHT22;4532;50.886;4.700;2023-10-13T05:06:32;21.00;72.90
8994;DHT22;4532;50.886;4.700;2023-10-13T05:09:14;21.00;72.90
8994;DHT22;4532;50.886;4.700;2023-10-13T05:12:02;21.00;73.00
8994;DHT22;4532;50.886;4.700;2023-10-13T05:15:11;21.00;73.70
8994;DHT22;4532;50.886;4.700;2023-10-13T05:17:57;21.00;73.00
8994;DHT22;4532;50.886;4.700;2023-10-13T05:20:42;21.00;73.00
8994;DHT22;4532;50.886;4.700;2023-10-13T05:23:27;21.00;73.00
8994;DHT22;4532;50.886;4.700;2023-10-13T05:26:13;20.90;73.00
8994;DHT22;4532;50.886;4.700;2023-10-13T05:29:03;21.00;73.10
8994;DHT22;4532;50.886;4.700;2023-10-13T05:31:55;21.00;73.00
8994;DHT22;4532;50.886;4.700;2023-10-13T05:34:43;21.00;73.10
8994;DHT22;4532;50.886;4.700;2023-10-13T05:37:29;21.00;73.10
8994;DHT22;4532;50.886;4.700;2023-10-13T05:40:14;21.00;73.10
8994;DHT22;4532;50.886;4.700;2023-10-13T05:43:05;20.90;73.00
8994;DHT22;4532;50.886;4.700;2023-10-13T05:46:01;20.90;73.10
8994;DHT22;4532;50.886;4.700;2023-10-13T05:48:52;20.90;73.10
8994;DHT22;4532;50.886;4.700;2023-10-13T05:51:32;20.90;73.10
8994;DHT22;4532;50.886;4.700;2023-10-13T05:54:02;20.90;73.10
8994;DHT22;4532;50.886;4.700;2023-10-13T05:56:49;20.90;73.10
8994;DHT22;4532;50.886;4.700;2023-10-13T05:59:36;20.90;73.10
8994;DHT22;4532;50.886;4.700;2023-10-13T06:02:23;20.90;73.10
8994;DHT22;4532;50.886;4.700;2023-10-13T06:05:12;20.90;73.00
8994;DHT22;4532;50.886;4.700;2023-10-13T06:08:00;20.90;73.10
8994;DHT22;4532;50.886;4.700;2023-10-13T06:10:48;20.90;73.10
8994;DHT22;4532;50.886;4.700;2023-10-13T06:13:39;20.90;73.10
8994;DHT22;4532;50.886;4.700;2023-10-13T06:16:25;20.90;73.10
8994;DHT22;4532;50.886;4.700;2023-10-13T06:19:11;20.90;73.10
8994;DHT22;4532;50.886;4.700;2023-10-13T06:21:56;20.80;73.20
8994;DHT22;4532;50.886;4.700;2023-10-13T06:24:44;20.90;73.20
8994;DHT22;4532;50.886;4.700;2023-10-13T06:27:35;20.90;73.30
8994;DHT22;4532;50.886;4.700;2023-10-13T06:30:21;20.90;73.30
8994;DHT22;4532;50.886;4.700;2023-10-13T06:32:48;20.90;73.40
8994;DHT22;4532;50.886;4.700;2023-10-13T06:35:18;20.90;73.40
8994;DHT22;4532;50.886;4.700;2023-10-13T06:37:53;20.90;73.30
8994;DHT22;4532;50.886;4.700;2023-10-13T06:40:20;20.90;73.30
8994;DHT22;4532;50.886;4.700;2023-10-13T06:42:56;21.00;73.30
8994;DHT22;4532;50.886;4.700;2023-10-13T06:45:42;21.00;73.30
8994;DHT22;4532;50.886;4.700;2023-10-13T06:48:10;21.00;73.30
8994;DHT22;4532;50.886;4.700;2023-10-13T06:50:39;21.00;73.30
8994;DHT22;4532;50.886;4.700;2023-10-13T06:53:11;21.00;73.30
8994;DHT22;4532;50.886;4.700;2023-10-13T06:55:42;21.00;73.30
8994;DHT22;4532;50.886;4.700;2023-10-13T06:58:14;21.10;73.30
8994;DHT22;4532;50.886;4.700;2023-10-13T07:00:41;21.10;73.30
8994;DHT22;4532;50.886;4.700;2023-10-13T07:03:22;21.10;73.20
8994;DHT22;4532;50.886;4.700;2023-10-13T07:05:49;21.10;73.20
8994;DHT22;4532;50.886;4.700;2023-10-13T07:08:18;21.10;73.20
8994;DHT22;4532;50.886;4.700;2023-10-13T07:10:54;21.10;73.10
8994;DHT22;4532;50.886;4.700;2023-10-13T07:13:41;21.10;73.30
8994;DHT22;4532;50.886;4.700;2023-10-13T07:16:17;21.10;73.20
8994;DHT22;4532;50.886;4.700;2023-10-13T07:18:56;21.10;73.20
8994;DHT22;4532;50.886;4.700;2023-10-13T07:21:33;21.10;73.20
8994;DHT22;4532;50.886;4.700;2023-10-13T07:24:14;21.10;73.20
8994;DHT22;4532;50.886;4.700;2023-10-13T07:26:42;21.10;73.20
8994;DHT22;4532;50.886;4.700;2023-10-13T07:29:14;21.10;73.20
8994;DHT22;4532;50.886;4.700;2023-10-13T07:31:44;21.10;73.30
8994;DHT22;4532;50.886;4.700;2023-10-13T07:34:15;21.10;73.20
8994;DHT22;4532;50.886;4.700;2023-10-13T07:36:59;21.10;73.30
8994;DHT22;4532;50.886;4.700;2023-10-13T07:39:30;21.10;73.20
8994;DHT22;4532;50.886;4.700;2023-10-13T07:42:05;21.10;73.20
8994;DHT22;4532;50.886;4.700;2023-10-13T07:44:42;21.10;73.20
8994;DHT22;4532;50.886;4.700;2023-10-13T07:47:22;21.10;73.20
8994;DHT22;4532;50.886;4.700;2023-10-13T07:49:54;21.20;73.30
8994;DHT22;4532;50.886;4.700;2023-10-13T07:52:26;21.20;73.20
8994;DHT22;4532;50.886;4.700;2023-10-13T07:55:08;21.20;73.20
8994;DHT22;4532;50.886;4.700;2023-10-13T07:57:40;21.30;73.20
8994;DHT22;4532;50.886;4.700;2023-10-13T08:00:26;21.30;73.20
8994;DHT22;4532;50.886;4.700;2023-10-13T08:03:05;21.30;73.10
8994;DHT22;4532;50.886;4.700;2023-10-13T08:05:53;21.30;73.80
8994;DHT22;4532;50.886;4.700;2023-10-13T08:08:25;21.30;73.10
8994;DHT22;4532;50.886;4.700;2023-10-13T08:10:53;21.30;73.20
8994;DHT22;4532;50.886;4.700;2023-10-13T08:13:30;21.30;73.00
8994;DHT22;4532;50.886;4.700;2023-10-13T08:16:19;21.30;73.10
8994;DHT22;4532;50.886;4.700;2023-10-13T08:18:50;21.40;73.20
8994;DHT22;4532;50.886;4.700;2023-10-13T08:21:19;21.40;73.10
8994;DHT22;4532;50.886;4.700;2023-10-13T08:23:58;21.40;73.20
8994;DHT22;4532;50.886;4.700;2023-10-13T08:26:32;21.50;73.10
8994;DHT22;4532;50.886;4.700;2023-10-13T08:29:03;21.50;73.10
8994;DHT22;4532;50.886;4.700;2023-10-13T08:31:47;21.50;73.00
8994;DHT22;4532;50.886;4.700;2023-10-13T08:34:37;21.50;73.00
8994;DHT22;4532;50.886;4.700;2023-10-13T08:37:10;21.50;72.90
8994;DHT22;4532;50.886;4.700;2023-10-13T08:39:56;21.50;73.70
8994;DHT22;4532;50.886;4.700;2023-10-13T08:42:51;21.60;72.80
8994;DHT22;4532;50.886;4.700;2023-10-13T08:45:39;21.60;72.80
8994;DHT22;4532;50.886;4.700;2023-10-13T08:48:08;21.60;72.80
8994;DHT22;4532;50.886;4.700;2023-10-13T08:58:37;21.70;72.70
8994;DHT22;4532;50.886;4.700;2023-10-13T09:01:23;21.70;72.70
8994;DHT22;4532;50.886;4.700;2023-10-13T09:04:13;21.70;72.50
8994;DHT22;4532;50.886;4.700;2023-10-13T09:07:05;21.70;72.50
8994;DHT22;4532;50.886;4.700;2023-10-13T09:12:25;21.80;72.40
8994;DHT22;4532;50.886;4.700;2023-10-13T09:15:04;21.80;72.40
8994;DHT22;4532;50.886;4.700;2023-10-13T09:17:44;21.80;72.40
8994;DHT22;4532;50.886;4.700;2023-10-13T09:20:30;21.80;72.40
8994;DHT22;4532;50.886;4.700;2023-10-13T09:23:11;21.80;72.30
8994;DHT22;4532;50.886;4.700;2023-10-13T09:26:07;21.80;72.20
8994;DHT22;4532;50.886;4.700;2023-10-13T09:28:45;21.80;72.40
8994;DHT22;4532;50.886;4.700;2023-10-13T09:31:22;21.90;72.30
8994;DHT22;4532;50.886;4.700;2023-10-13T09:33:53;21.90;72.20
8994;DHT22;4532;50.886;4.700;2023-10-13T09:36:22;21.90;72.30
8994;DHT22;4532;50.886;4.700;2023-10-13T09:38:55;21.90;72.20
8994;DHT22;4532;50.886;4.700;2023-10-13T09:41:50;21.90;72.20
8994;DHT22;4532;50.886;4.700;2023-10-13T09:44:20;22.00;72.30
8994;DHT22;4532;50.886;4.700;2023-10-13T09:46:49;22.00;72.10
8994;DHT22;4532;50.886;4.700;2023-10-13T09:49:22;22.00;72.10
8994;DHT22;4532;50.886;4.700;2023-10-13T09:52:17;22.00;71.90
8994;DHT22;4532;50.886;4.700;2023-10-13T09:55:13;22.00;71.90
8994;DHT22;4532;50.886;4.700;2023-10-13T09:57:53;22.10;71.90
8994;DHT22;4532;50.886;4.700;2023-10-13T10:00:31;22.10;72.00
8994;DHT22;4532;50.886;4.700;2023-10-13T10:03:08;22.10;71.90
8994;DHT22;4532;50.886;4.700;2023-10-13T10:06:00;22.20;71.90
8994;DHT22;4532;50.886;4.700;2023-10-13T10:08:33;22.20;71.90
8994;DHT22;4532;50.886;4.700;2023-10-13T10:19:05;22.30;71.70
8994;DHT22;4532;50.886;4.700;2023-10-13T10:21:38;22.40;71.80
8994;DHT22;4532;50.886;4.700;2023-10-13T10:24:16;22.40;71.80
8994;DHT22;4532;50.886;4.700;2023-10-13T10:27:03;22.40;71.70
8994;DHT22;4532;50.886;4.700;2023-10-13T10:29:37;22.50;71.70
8994;DHT22;4532;50.886;4.700;2023-10-13T10:32:15;22.50;71.70
8994;DHT22;4532;50.886;4.700;2023-10-13T10:34:42;22.60;71.70
8994;DHT22;4532;50.886;4.700;2023-10-13T10:37:09;22.60;71.70
8994;DHT22;4532;50.886;4.700;2023-10-13T10:39:40;22.60;71.60
8994;DHT22;4532;50.886;4.700;2023-10-13T10:42:15;22.60;71.60
8994;DHT22;4532;50.886;4.700;2023-10-13T10:44:43;22.70;71.60
8994;DHT22;4532;50.886;4.700;2023-10-13T10:47:15;22.70;71.40
8994;DHT22;4532;50.886;4.700;2023-10-13T10:50:08;22.70;71.30
8994;DHT22;4532;50.886;4.700;2023-10-13T10:52:46;22.80;72.20
8994;DHT22;4532;50.886;4.700;2023-10-13T10:55:20;22.80;71.30
8994;DHT22;4532;50.886;4.700;2023-10-13T10:58:03;22.80;71.30
8994;DHT22;4532;50.886;4.700;2023-10-13T11:00:36;22.90;71.10
8994;DHT22;4532;50.886;4.700;2023-10-13T11:03:15;22.90;71.20
8994;DHT22;4532;50.886;4.700;2023-10-13T11:05:45;22.90;71.20
8994;DHT22;4532;50.886;4.700;2023-10-13T11:08:24;23.00;71.20
8994;DHT22;4532;50.886;4.700;2023-10-13T11:11:01;23.00;71.00
8994;DHT22;4532;50.886;4.700;2023-10-13T11:13:44;23.10;71.10
8994;DHT22;4532;50.886;4.700;2023-10-13T11:16:22;23.10;70.90
8994;DHT22;4532;50.886;4.700;2023-10-13T11:19:04;23.10;70.70
8994;DHT22;4532;50.886;4.700;2023-10-13T11:21:36;23.20;70.80
8994;DHT22;4532;50.886;4.700;2023-10-13T11:24:08;23.20;70.80
8994;DHT22;4532;50.886;4.700;2023-10-13T11:26:41;23.30;70.80
8994;DHT22;4532;50.886;4.700;2023-10-13T11:29:18;23.30;70.40
8994;DHT22;4532;50.886;4.700;2023-10-13T11:31:47;23.30;70.40
8994;DHT22;4532;50.886;4.700;2023-10-13T11:34:23;23.40;70.30
8994;DHT22;4532;50.886;4.700;2023-10-13T11:36:55;23.40;71.30
8994;DHT22;4532;50.886;4.700;2023-10-13T11:39:24;23.40;70.30
8994;DHT22;4532;50.886;4.700;2023-10-13T11:41:52;23.40;70.10
8994;DHT22;4532;50.886;4.700;2023-10-13T11:44:25;23.50;70.20
8994;DHT22;4532;50.886;4.700;2023-10-13T11:46:55;23.50;70.10
8994;DHT22;4532;50.886;4.700;2023-10-13T11:49:23;23.50;69.80
8994;DHT22;4532;50.886;4.700;2023-10-13T11:51:56;23.60;69.80
8994;DHT22;4532;50.886;4.700;2023-10-13T11:54:38;23.60;69.90
8994;DHT22;4532;50.886;4.700;2023-10-13T11:57:11;23.60;69.50
8994;DHT22;4532;50.886;4.700;2023-10-13T11:59:38;23.60;69.60
8994;DHT22;4532;50.886;4.700;2023-10-13T12:02:14;23.60;69.40
8994;DHT22;4532;50.886;4.700;2023-10-13T12:04:54;23.60;69.40
8994;DHT22;4532;50.886;4.700;2023-10-13T12:07:24;23.70;69.00
8994;DHT22;4532;50.886;4.700;2023-10-13T12:09:56;23.70;69.00
8994;DHT22;4532;50.886;4.700;2023-10-13T12:12:25;23.70;69.10
8994;DHT22;4532;50.886;4.700;2023-10-13T12:14:55;23.70;68.90
8994;DHT22;4532;50.886;4.700;2023-10-13T12:17:28;23.70;68.70
8994;DHT22;4532;50.886;4.700;2023-10-13T12:19:59;23.70;68.40
8994;DHT22;4532;50.886;4.700;2023-10-13T12:22:26;23.70;68.50
8994;DHT22;4532;50.886;4.700;2023-10-13T12:25:08;23.80;68.30
8994;DHT22;4532;50.886;4.700;2023-10-13T12:27:54;23.80;68.60
8994;DHT22;4532;50.886;4.700;2023-10-13T12:30:25;23.80;68.30
8994;DHT22;4532;50.886;4.700;2023-10-13T12:33:14;23.80;68.30
8994;DHT22;4532;50.886;4.700;2023-10-13T12:35:45;23.80;68.20
8994;DHT22;4532;50.886;4.700;2023-10-13T12:38:42;23.80;68.30
8994;DHT22;4532;50.886;4.700;2023-10-13T12:41:20;23.80;68.00
8994;DHT22;4532;50.886;4.700;2023-10-13T12:44:09;23.80;68.10
8994;DHT22;4532;50.886;4.700;2023-10-13T12:46:54;23.80;68.00
8994;DHT22;4532;50.886;4.700;2023-10-13T12:49:40;23.80;68.00
8994;DHT22;4532;50.886;4.700;2023-10-13T12:52:11;23.80;68.00
8994;DHT22;4532;50.886;4.700;2023-10-13T12:54:53;23.80;67.90
8994;DHT22;4532;50.886;4.700;2023-10-13T12:57:27;23.80;68.00
8994;DHT22;4532;50.886;4.700;2023-10-13T12:59:57;23.80;68.00
8994;DHT22;4532;50.886;4.700;2023-10-13T13:02:27;23.80;67.80
8994;DHT22;4532;50.886;4.700;2023-10-13T13:04:56;23.80;67.60
8994;DHT22;4532;50.886;4.700;2023-10-13T13:07:42;23.80;67.60
8994;DHT22;4532;50.886;4.700;2023-10-13T13:10:21;23.80;67.50
8994;DHT22;4532;50.886;4.700;2023-10-13T13:13:04;23.80;67.60
8994;DHT22;4532;50.886;4.700;2023-10-13T13:15:32;23.80;67.40
8994;DHT22;4532;50.886;4.700;2023-10-13T13:18:00;23.70;67.20
8994;DHT22;4532;50.886;4.700;2023-10-13T13:20:38;23.70;67.00
8994;DHT22;4532;50.886;4.700;2023-10-13T13:23:23;23.70;67.10
8994;DHT22;4532;50.886;4.700;2023-10-13T13:25:54;23.70;67.40
8994;DHT22;4532;50.886;4.700;2023-10-13T13:28:24;23.70;66.90
8994;DHT22;4532;50.886;4.700;2023-10-13T13:30:58;23.70;67.00
8994;DHT22;4532;50.886;4.700;2023-10-13T13:33:26;23.70;67.00
8994;DHT22;4532;50.886;4.700;2023-10-13T13:35:56;23.70;67.20
8994;DHT22;4532;50.886;4.700;2023-10-13T13:38:29;23.70;67.20
8994;DHT22;4532;50.886;4.700;2023-10-13T13:41:01;23.70;66.90
8994;DHT22;4532;50.886;4.700;2023-10-13T13:43:32;23.80;67.10
8994;DHT22;4532;50.886;4.700;2023-10-13T13:46:08;23.80;66.50
8994;DHT22;4532;50.886;4.700;2023-10-13T13:48:39;23.80;66.30
8994;DHT22;4532;50.886;4.700;2023-10-13T13:51:08;23.80;67.50
8994;DHT22;4532;50.886;4.700;2023-10-13T13:53:43;23.80;66.60
8994;DHT22;4532;50.886;4.700;2023-10-13T13:56:13;23.80;65.90
8994;DHT22;4532;50.886;4.700;2023-10-13T13:58:48;23.80;66.40
8994;DHT22;4532;50.886;4.700;2023-10-13T14:01:20;23.70;66.30
8994;DHT22;4532;50.886;4.700;2023-10-13T14:03:56;23.70;66.20
8994;DHT22;4532;50.886;4.700;2023-10-13T14:06:29;23.80;65.70
8994;DHT22;4532;50.886;4.700;2023-10-13T14:08:58;23.70;65.80
8994;DHT22;4532;50.886;4.700;2023-10-13T14:11:52;23.70;66.10
8994;DHT22;4532;50.886;4.700;2023-10-13T14:14:40;23.80;66.00
8994;DHT22;4532;50.886;4.700;2023-10-13T14:17:16;23.80;66.10
8994;DHT22;4532;50.886;4.700;2023-10-13T14:19:43;23.80;66.30
8994;DHT22;4532;50.886;4.700;2023-10-13T14:22:15;23.80;66.00
8994;DHT22;4532;50.886;4.700;2023-10-13T14:24:42;23.80;66.20
8994;DHT22;4532;50.886;4.700;2023-10-13T14:27:21;23.80;66.30
8994;DHT22;4532;50.886;4.700;2023-10-13T14:29:52;23.80;66.00
8994;DHT22;4532;50.886;4.700;2023-10-13T14:32:25;23.80;65.60
8994;DHT22;4532;50.886;4.700;2023-10-13T14:34:53;23.80;65.80
8994;DHT22;4532;50.886;4.700;2023-10-13T14:37:24;23.80;65.90
8994;DHT22;4532;50.886;4.700;2023-10-13T14:39:58;23.80;66.00
8994;DHT22;4532;50.886;4.700;2023-10-13T14:42:28;23.80;65.90
8994;DHT22;4532;50.886;4.700;2023-10-13T14:44:56;23.80;65.60
8994;DHT22;4532;50.886;4.700;2023-10-13T14:47:26;23.90;65.40
8994;DHT22;4532;50.886;4.700;2023-10-13T14:49:55;23.90;65.40
8994;DHT22;4532;50.886;4.700;2023-10-13T14:52:22;23.90;65.70
8994;DHT22;4532;50.886;4.700;2023-10-13T14:54:52;23.90;65.30
8994;DHT22;4532;50.886;4.700;2023-10-13T14:57:22;23.90;65.30
8994;DHT22;4532;50.886;4.700;2023-10-13T14:59:55;23.90;65.40
8994;DHT22;4532;50.886;4.700;2023-10-13T15:02:22;23.90;65.10
8994;DHT22;4532;50.886;4.700;2023-10-13T15:04:50;23.90;65.20
8994;DHT22;4532;50.886;4.700;2023-10-13T15:07:17;23.90;65.20
8994;DHT22;4532;50.886;4.700;2023-10-13T15:09:46;23.90;66.20
8994;DHT22;4532;50.886;4.700;2023-10-13T15:12:18;23.80;65.00
8994;DHT22;4532;50.886;4.700;2023-10-13T15:14:55;23.80;65.00
8994;DHT22;4532;50.886;4.700;2023-10-13T15:17:23;23.80;65.10
8994;DHT22;4532;50.886;4.700;2023-10-13T15:19:54;23.80;65.20
8994;DHT22;4532;50.886;4.700;2023-10-13T15:22:21;23.80;65.20
8994;DHT22;4532;50.886;4.700;2023-10-13T15:24:58;23.80;65.30
8994;DHT22;4532;50.886;4.700;2023-10-13T15:27:49;23.80;65.10
8994;DHT22;4532;50.886;4.700;2023-10-13T15:30:23;23.80;65.10
8994;DHT22;4532;50.886;4.700;2023-10-13T15:32:58;23.80;65.00
8994;DHT22;4532;50.886;4.700;2023-10-13T15:35:31;23.80;65.00
8994;DHT22;4532;50.886;4.700;2023-10-13T15:38:01;23.70;64.90
8994;DHT22;4532;50.886;4.700;2023-10-13T15:40:28;23.70;64.80
8994;DHT22;4532;50.886;4.700;2023-10-13T15:43:00;23.70;64.80
8994;DHT22;4532;50.886;4.700;2023-10-13T15:45:31;23.70;64.80
8994;DHT22;4532;50.886;4.700;2023-10-13T15:48:06;23.70;64.50
8994;DHT22;4532;50.886;4.700;2023-10-13T15:50:38;23.60;64.70
8994;DHT22;4532;50.886;4.700;2023-10-13T15:53:09;23.60;64.60
8994;DHT22;4532;50.886;4.700;2023-10-13T15:55:42;23.60;64.70
8994;DHT22;4532;50.886;4.700;2023-10-13T15:58:15;23.60;64.60
8994;DHT22;4532;50.886;4.700;2023-10-13T16:00:43;23.50;64.60
8994;DHT22;4532;50.886;4.700;2023-10-13T16:03:12;23.50;65.40
8994;DHT22;4532;50.886;4.700;2023-10-13T16:05:43;23.50;64.50
8994;DHT22;4532;50.886;4.700;2023-10-13T16:08:11;23.50;64.40
8994;DHT22;4532;50.886;4.700;2023-10-13T16:10:41;23.40;64.40
8994;DHT22;4532;50.886;4.700;2023-10-13T16:13:09;23.40;64.60
8994;DHT22;4532;50.886;4.700;2023-10-13T16:15:46;23.40;64.50
8994;DHT22;4532;50.886;4.700;2023-10-13T16:18:15;23.30;64.40
8994;DHT22;4532;50.886;4.700;2023-10-13T16:20:48;23.30;64.30
8994;DHT22;4532;50.886;4.700;2023-10-13T16:23:20;23.30;64.40
8994;DHT22;4532;50.886;4.700;2023-10-13T16:25:49;23.30;64.50
8994;DHT22;4532;50.886;4.700;2023-10-13T16:28:20;23.30;64.50
8994;DHT22;4532;50.886;4.700;2023-10-13T16:30:51;23.20;64.30
8994;DHT22;4532;50.886;4.700;2023-10-13T16:33:22;23.20;64.00
8994;DHT22;4532;50.886;4.700;2023-10-13T16:35:50;23.20;64.30
8994;DHT22;4532;50.886;4.700;2023-10-13T16:38:23;23.20;64.30
8994;DHT22;4532;50.886;4.700;2023-10-13T16:40:54;23.10;64.20
8994;DHT22;4532;50.886;4.700;2023-10-13T16:43:26;23.10;64.20
8994;DHT22;4532;50.886;4.700;2023-10-13T16:45:55;23.10;64.20
8994;DHT22;4532;50.886;4.700;2023-10-13T16:48:25;23.10;64.20
8994;DHT22;4532;50.886;4.700;2023-10-13T16:50:53;23.00;64.10
8994;DHT22;4532;50.886;4.700;2023-10-13T16:53:24;23.00;64.30
8994;DHT22;4532;50.886;4.700;2023-10-13T16:55:58;23.00;64.40
8994;DHT22;4532;50.886;4.700;2023-10-13T16:58:32;23.00;64.30
8994;DHT22;4532;50.886;4.700;2023-10-13T17:01:01;23.00;64.30
8994;DHT22;4532;50.886;4.700;2023-10-13T17:03:42;22.90;64.30
8994;DHT22;4532;50.886;4.700;2023-10-13T17:06:12;22.90;64.30
8994;DHT22;4532;50.886;4.700;2023-10-13T17:08:42;22.90;64.40
8994;DHT22;4532;50.886;4.700;2023-10-13T17:11:17;22.80;64.30
8994;DHT22;4532;50.886;4.700;2023-10-13T17:13:47;22.80;64.40
8994;DHT22;4532;50.886;4.700;2023-10-13T17:16:19;22.80;64.50
8994;DHT22;4532;50.886;4.700;2023-10-13T17:18:51;22.80;64.50
8994;DHT22;4532;50.886;4.700;2023-10-13T17:21:20;22.80;64.50